createdAt,value
2018-12-03T00:01:23.699Z,10.70
2018-12-03T00:03:53.034Z,10.80
2018-12-03T00:06:22.519Z,10.70
2018-12-03T00:08:51.722Z,10.70
2018-12-03T00:11:20.960Z,10.70
2018-12-03T00:13:50.216Z,10.70
2018-12-03T00:16:19.439Z,10.80
2018-12-03T00:18:48.634Z,10.80
2018-12-03T00:21:17.848Z,10.80
2018-12-03T00:23:47.130Z,10.80
2018-12-03T00:26:16.347Z,10.80
2018-12-03T00:28:45.578Z,10.80
2018-12-03T00:31:14.806Z,10.80
2018-12-03T00:33:44.043Z,10.80
2018-12-03T00:36:13.267Z,10.90
2018-12-03T00:38:42.509Z,10.90
2018-12-03T00:41:11.773Z,11.00
2018-12-03T00:43:40.999Z,11.10
2018-12-03T00:46:10.230Z,11.10
2018-12-03T00:48:39.535Z,11.10
2018-12-03T00:51:08.747Z,11.10
2018-12-03T00:53:38.008Z,11.10
2018-12-03T00:56:07.234Z,11.00
2018-12-03T00:58:36.527Z,11.00
2018-12-03T01:01:06.098Z,11.10
2018-12-03T01:03:35.414Z,11.00
2018-12-03T01:06:05.099Z,11.00
2018-12-03T01:08:34.334Z,11.00
2018-12-03T01:11:03.568Z,11.00
2018-12-03T01:13:36.304Z,11.00
2018-12-03T01:16:05.791Z,11.00
2018-12-03T01:18:35.005Z,11.00
2018-12-03T01:21:04.267Z,11.00
2018-12-03T01:23:33.527Z,11.00
2018-12-03T01:26:02.751Z,10.90
2018-12-03T01:28:31.955Z,10.90
2018-12-03T01:31:01.194Z,11.00
2018-12-03T01:33:30.419Z,10.90
2018-12-03T01:35:59.643Z,10.90
2018-12-03T01:38:28.874Z,10.90
2018-12-03T01:40:58.118Z,10.90
2018-12-03T01:43:27.369Z,10.90
2018-12-03T01:45:56.586Z,10.90
2018-12-03T01:48:25.799Z,10.90
2018-12-03T01:50:54.982Z,10.80
2018-12-03T01:53:24.240Z,10.90
2018-12-03T01:55:53.452Z,10.90
2018-12-03T01:58:22.699Z,10.90
2018-12-03T02:00:51.907Z,10.90
2018-12-03T02:03:21.131Z,10.90
2018-12-03T02:05:50.330Z,10.90
2018-12-03T02:08:19.606Z,10.90
2018-12-03T02:10:48.793Z,10.90
2018-12-03T02:13:17.994Z,10.90
2018-12-03T02:15:47.190Z,11.00
2018-12-03T02:18:16.415Z,11.00
2018-12-03T02:20:46.565Z,11.10
2018-12-03T02:23:15.790Z,11.10
2018-12-03T02:25:45.166Z,11.10
2018-12-03T02:28:14.411Z,11.10
2018-12-03T02:30:43.619Z,11.10
2018-12-03T02:33:12.839Z,11.00
2018-12-03T02:35:42.112Z,11.00
2018-12-03T02:38:11.351Z,11.00
2018-12-03T02:40:41.043Z,11.00
2018-12-03T02:43:10.256Z,11.00
2018-12-03T02:45:39.485Z,11.00
2018-12-03T02:48:08.692Z,11.00
2018-12-03T02:50:37.980Z,11.00
2018-12-03T02:53:07.636Z,11.00
2018-12-03T02:55:36.973Z,11.00
2018-12-03T02:58:06.301Z,11.00
2018-12-03T03:00:38.901Z,11.00
2018-12-03T03:03:08.329Z,11.00
2018-12-03T03:05:37.575Z,10.90
2018-12-03T03:08:07.299Z,10.90
2018-12-03T03:10:36.502Z,10.90
2018-12-03T03:13:05.798Z,10.90
2018-12-03T03:15:34.977Z,10.80
2018-12-03T03:18:04.180Z,10.80
2018-12-03T03:20:34.276Z,10.80
2018-12-03T03:23:03.547Z,10.90
2018-12-03T03:25:32.739Z,10.90
2018-12-03T03:28:01.921Z,10.90
2018-12-03T03:30:31.117Z,10.80
2018-12-03T03:33:00.335Z,10.80
2018-12-03T03:35:29.543Z,10.80
2018-12-03T03:37:58.778Z,10.80
2018-12-03T03:40:27.962Z,10.80
2018-12-03T03:42:57.198Z,10.80
2018-12-03T03:45:27.019Z,10.80
2018-12-03T03:47:56.234Z,10.90
2018-12-03T03:50:25.482Z,10.80
2018-12-03T03:52:54.686Z,10.90
2018-12-03T03:55:23.963Z,10.90
2018-12-03T03:57:53.167Z,10.90
2018-12-03T04:00:22.403Z,10.90
2018-12-03T04:02:52.033Z,10.90
2018-12-03T04:05:20.904Z,10.90
2018-12-03T04:07:50.227Z,10.90
2018-12-03T04:10:19.424Z,10.90
2018-12-03T04:12:48.653Z,10.80
2018-12-03T04:15:18.682Z,10.80
2018-12-03T04:17:47.916Z,10.80
2018-12-03T04:20:19.811Z,10.80
2018-12-03T04:22:52.995Z,10.70
2018-12-03T04:25:22.186Z,10.70
2018-12-03T04:27:51.425Z,10.70
2018-12-03T04:30:22.107Z,10.70
2018-12-03T04:32:52.689Z,10.70
2018-12-03T04:35:22.809Z,10.60
2018-12-03T04:37:52.041Z,10.50
2018-12-03T04:40:21.257Z,10.50
2018-12-03T04:42:50.770Z,10.50
2018-12-03T04:45:20.344Z,10.50
2018-12-03T04:47:50.868Z,10.50
2018-12-03T04:50:21.555Z,10.50
2018-12-03T04:52:50.770Z,10.50
2018-12-03T04:55:21.320Z,10.40
2018-12-03T04:57:50.703Z,10.40
2018-12-03T05:00:21.355Z,10.40
2018-12-03T05:02:52.223Z,10.50
2018-12-03T05:05:21.519Z,10.50
2018-12-03T05:07:50.818Z,10.50
2018-12-03T05:10:21.401Z,10.40
2018-12-03T05:12:53.202Z,10.30
2018-12-03T05:15:22.424Z,10.30
2018-12-03T05:17:51.665Z,10.30
2018-12-03T05:20:22.627Z,10.30
2018-12-03T05:22:51.863Z,10.30
2018-12-03T05:25:21.099Z,10.30
2018-12-03T05:27:50.384Z,10.20
2018-12-03T05:30:19.623Z,10.20
2018-12-03T05:32:48.838Z,10.20
2018-12-03T05:35:22.835Z,10.20
2018-12-03T05:37:52.102Z,10.20
2018-12-03T05:40:25.634Z,10.20
2018-12-03T05:42:54.868Z,10.20
2018-12-03T05:45:24.085Z,10.30
2018-12-03T05:47:53.379Z,10.30
2018-12-03T05:50:23.106Z,10.30
2018-12-03T05:52:52.280Z,10.30
2018-12-03T05:55:21.504Z,10.20
2018-12-03T05:57:51.264Z,10.30
2018-12-03T06:00:23.331Z,10.30
2018-12-03T06:02:52.633Z,10.30
2018-12-03T06:05:21.827Z,10.30
2018-12-03T06:07:51.008Z,10.30
2018-12-03T06:10:21.598Z,10.40
2018-12-03T06:12:50.887Z,10.40
2018-12-03T06:15:21.151Z,10.50
2018-12-03T06:17:52.424Z,10.50
2018-12-03T06:20:22.792Z,10.60
2018-12-03T06:22:53.790Z,10.60
2018-12-03T06:25:26.230Z,10.50
2018-12-03T06:27:55.431Z,10.50
2018-12-03T06:30:25.714Z,10.50
2018-12-03T06:32:54.899Z,10.50
2018-12-03T06:35:24.093Z,10.50
2018-12-03T06:37:53.927Z,10.60
2018-12-03T06:40:31.086Z,10.60
2018-12-03T06:43:00.291Z,10.60
2018-12-03T06:45:29.635Z,10.70
2018-12-03T06:48:03.099Z,10.70
2018-12-03T06:50:32.315Z,10.80
2018-12-03T06:53:01.503Z,10.70
2018-12-03T06:55:30.710Z,10.70
2018-12-03T06:57:59.886Z,10.70
2018-12-03T07:00:29.115Z,10.80
2018-12-03T07:02:58.299Z,10.80
2018-12-03T07:05:27.482Z,10.80
2018-12-03T07:07:58.895Z,10.90
2018-12-03T07:10:28.105Z,10.80
2018-12-03T07:13:00.074Z,10.80
2018-12-03T07:15:32.147Z,10.80
2018-12-03T07:18:01.331Z,10.80
2018-12-03T07:20:37.227Z,10.80
2018-12-03T07:23:06.611Z,10.80
2018-12-03T07:25:35.815Z,10.80
2018-12-03T07:28:05.040Z,10.80
2018-12-03T07:30:34.227Z,10.90
2018-12-03T07:33:09.724Z,10.90
2018-12-03T07:35:38.931Z,10.90
2018-12-03T07:38:08.131Z,11.00
2018-12-03T07:40:37.357Z,11.00
2018-12-03T07:43:07.041Z,11.00
2018-12-03T07:45:36.259Z,11.00
2018-12-03T07:48:05.503Z,11.00
2018-12-03T07:50:34.751Z,11.00
2018-12-03T07:53:03.927Z,11.00
2018-12-03T07:55:33.166Z,11.00
2018-12-03T07:58:06.963Z,11.00
2018-12-03T08:00:45.874Z,11.10
2018-12-03T08:03:15.098Z,11.10
2018-12-03T08:05:44.291Z,11.00
2018-12-03T08:08:13.474Z,11.10
2018-12-03T08:10:45.634Z,11.10
2018-12-03T08:13:16.022Z,11.20
2018-12-03T08:15:45.232Z,11.20
2018-12-03T08:18:16.962Z,11.30
2018-12-03T08:20:53.354Z,11.20
2018-12-03T08:23:35.751Z,11.20
2018-12-03T08:26:07.626Z,11.20
2018-12-03T08:28:36.815Z,11.20
2018-12-03T08:31:06.751Z,11.20
2018-12-03T08:33:35.940Z,11.20
2018-12-03T08:36:05.843Z,11.10
2018-12-03T08:38:35.063Z,11.10
2018-12-03T08:41:07.045Z,11.10
2018-12-03T08:43:36.268Z,11.10
2018-12-03T08:46:08.315Z,11.10
2018-12-03T08:48:40.703Z,11.00
2018-12-03T08:51:11.175Z,11.00
2018-12-03T08:53:40.475Z,11.10
2018-12-03T08:56:09.714Z,11.10
2018-12-03T08:58:38.914Z,11.00
2018-12-03T09:01:12.213Z,11.00
2018-12-03T09:03:42.878Z,11.00
2018-12-03T09:06:13.719Z,11.00
2018-12-03T09:08:48.485Z,11.00
2018-12-03T09:11:19.555Z,11.00
2018-12-03T09:13:48.987Z,11.00
2018-12-03T09:16:18.181Z,10.90
2018-12-03T09:18:47.350Z,10.90
2018-12-03T09:21:18.806Z,10.90
2018-12-03T09:23:49.485Z,10.90
2018-12-03T09:26:18.862Z,10.90
2018-12-03T09:28:48.054Z,10.90
2018-12-03T09:31:22.795Z,11.00
2018-12-03T09:33:55.255Z,11.00
2018-12-03T09:36:25.004Z,11.10
2018-12-03T09:39:07.538Z,11.20
2018-12-03T09:41:36.898Z,11.20
2018-12-03T09:44:06.807Z,11.30
2018-12-03T09:46:36.011Z,11.40
2018-12-03T09:49:05.418Z,11.40
2018-12-03T09:51:37.093Z,11.40
2018-12-03T09:54:08.739Z,11.30
2018-12-03T09:56:40.547Z,11.30
2018-12-03T09:59:25.883Z,11.30
2018-12-03T10:01:58.427Z,11.30
2018-12-03T10:04:31.611Z,11.30
2018-12-03T10:07:00.820Z,11.30
2018-12-03T10:09:38.153Z,11.30
2018-12-03T10:12:09.039Z,11.30
2018-12-03T10:14:38.243Z,11.30
2018-12-03T10:17:07.820Z,11.30
2018-12-03T10:19:36.997Z,11.40
2018-12-03T10:22:08.008Z,11.40
2018-12-03T10:24:37.791Z,11.50
2018-12-03T10:27:11.382Z,11.50
2018-12-03T10:29:40.891Z,11.60
2018-12-03T10:32:10.504Z,11.60
2018-12-03T10:34:39.695Z,11.60
2018-12-03T10:37:08.898Z,11.70
2018-12-03T10:39:39.569Z,11.90
2018-12-03T10:42:16.247Z,11.90
2018-12-03T10:44:46.772Z,11.90
2018-12-03T10:47:16.002Z,12.00
2018-12-03T10:49:45.184Z,12.00
2018-12-03T10:52:23.459Z,12.00
2018-12-03T10:54:52.719Z,12.00
2018-12-03T10:57:23.402Z,12.10
2018-12-03T10:59:55.738Z,12.00
2018-12-03T11:02:33.348Z,12.00
2018-12-03T11:05:07.888Z,12.00
2018-12-03T11:07:44.558Z,12.00
2018-12-03T11:10:13.764Z,11.90
2018-12-03T11:12:43.007Z,11.90
2018-12-03T11:15:15.017Z,11.90
2018-12-03T11:17:44.396Z,11.90
2018-12-03T11:20:13.587Z,12.00
2018-12-03T11:22:42.976Z,12.00
2018-12-03T11:25:15.963Z,11.90
2018-12-03T11:27:48.764Z,11.90
2018-12-03T11:30:18.012Z,11.90
2018-12-03T11:32:47.260Z,11.90
2018-12-03T11:35:23.810Z,11.80
2018-12-03T11:37:56.863Z,11.80
2018-12-03T11:40:46.904Z,11.80
2018-12-03T11:43:16.206Z,11.90
2018-12-03T11:45:45.459Z,11.80
2018-12-03T11:48:14.667Z,11.80
2018-12-03T11:50:43.911Z,11.80
2018-12-03T11:53:13.249Z,11.80
2018-12-03T11:55:42.523Z,11.80
2018-12-03T11:58:11.759Z,11.80
2018-12-03T12:00:40.966Z,11.80
2018-12-03T12:03:10.181Z,11.80
2018-12-03T12:05:39.376Z,11.90
2018-12-03T12:08:08.589Z,11.90
2018-12-03T12:10:37.780Z,12.00
2018-12-03T12:13:06.995Z,12.00
2018-12-03T12:15:36.198Z,11.90
2018-12-03T12:18:05.415Z,12.00
2018-12-03T12:20:34.630Z,12.00
2018-12-03T12:23:03.842Z,11.90
2018-12-03T12:25:33.060Z,11.90
2018-12-03T12:28:02.275Z,11.90
2018-12-03T12:30:31.464Z,11.90
2018-12-03T12:33:00.676Z,11.80
2018-12-03T12:35:29.863Z,11.90
2018-12-03T12:37:59.099Z,11.90
2018-12-03T12:40:28.296Z,11.80
2018-12-03T12:42:57.520Z,11.80
2018-12-03T12:45:32.173Z,11.80
2018-12-03T12:48:01.391Z,11.70
2018-12-03T12:50:30.603Z,11.70
2018-12-03T12:52:59.799Z,11.70
2018-12-03T12:55:28.988Z,11.70
2018-12-03T12:57:58.206Z,11.70
2018-12-03T13:00:27.407Z,11.80
2018-12-03T13:02:56.623Z,11.90
2018-12-03T13:05:28.699Z,11.90
2018-12-03T13:07:55.192Z,11.90
2018-12-03T13:10:24.411Z,11.90
2018-12-03T13:12:53.841Z,11.90
2018-12-03T13:15:23.036Z,11.90
2018-12-03T13:17:52.251Z,11.80
2018-12-03T13:20:21.436Z,11.70
2018-12-03T13:22:50.639Z,11.70
2018-12-03T13:25:21.051Z,11.70
2018-12-03T13:27:54.875Z,11.70
2018-12-03T13:30:24.064Z,11.70
2018-12-03T13:32:53.271Z,11.70
2018-12-03T13:35:22.456Z,11.70
2018-12-03T13:37:51.680Z,11.70
2018-12-03T13:40:20.867Z,11.70
2018-12-03T13:42:50.147Z,11.80
2018-12-03T13:50:53.651Z,11.60
2018-12-03T13:53:23.044Z,11.60
2018-12-03T13:55:52.448Z,11.60
2018-12-03T13:58:21.758Z,11.60
2018-12-03T14:00:51.053Z,11.60
2018-12-03T14:03:24.190Z,11.60
2018-12-03T14:07:31.154Z,11.60
2018-12-03T14:11:31.367Z,11.50
2018-12-03T14:18:27.742Z,11.50
2018-12-03T14:21:06.864Z,11.40
2018-12-03T14:23:38.294Z,11.20
2018-12-03T14:26:08.174Z,11.20
2018-12-03T14:28:37.376Z,11.10
2018-12-03T14:31:06.895Z,11.10
2018-12-03T14:33:36.336Z,11.10
2018-12-03T14:36:05.947Z,11.10
2018-12-03T14:38:35.163Z,11.10
2018-12-03T14:41:04.466Z,11.10
2018-12-03T14:43:33.670Z,11.10
2018-12-03T14:46:02.887Z,11.10
2018-12-03T14:48:38.915Z,11.10
2018-12-03T14:51:08.254Z,11.10
2018-12-03T14:53:37.457Z,11.10
2018-12-03T14:56:06.727Z,11.00
2018-12-03T14:58:35.928Z,11.00
2018-12-03T15:01:05.218Z,10.90
2018-12-03T15:03:34.512Z,10.90
2018-12-03T15:06:03.789Z,10.90
2018-12-03T15:08:33.003Z,10.90
2018-12-03T15:11:02.178Z,10.80
2018-12-03T15:13:32.190Z,10.80
2018-12-03T15:16:01.377Z,10.70
2018-12-03T15:18:30.569Z,10.70
2018-12-03T15:21:00.063Z,10.60
2018-12-03T15:23:29.275Z,10.60
2018-12-03T15:25:58.442Z,10.50
2018-12-03T15:28:27.642Z,10.50
2018-12-03T15:30:56.823Z,10.50
2018-12-03T15:33:26.138Z,10.50
2018-12-03T15:35:55.311Z,10.50
2018-12-03T15:38:24.519Z,10.50
2018-12-03T15:40:53.956Z,10.50
2018-12-03T15:43:23.146Z,10.50
2018-12-03T15:45:52.323Z,10.50
2018-12-03T15:48:21.611Z,10.40
2018-12-03T15:50:50.793Z,10.40
2018-12-03T15:53:19.979Z,10.40
2018-12-03T15:55:49.167Z,10.40
2018-12-03T15:58:18.438Z,10.40
2018-12-03T16:00:47.624Z,10.40
2018-12-03T16:03:16.835Z,10.40
2018-12-03T16:05:46.103Z,10.40
2018-12-03T16:08:15.403Z,10.40
2018-12-03T16:10:44.806Z,10.40
2018-12-03T16:13:14.004Z,10.30
2018-12-03T16:15:43.187Z,10.30
2018-12-03T16:18:12.462Z,10.30
2018-12-03T16:20:41.696Z,10.30
2018-12-03T16:23:10.972Z,10.30
2018-12-03T16:25:40.247Z,10.40
2018-12-03T16:28:09.418Z,10.40
2018-12-03T16:30:38.611Z,10.40
2018-12-03T16:33:07.911Z,10.40
2018-12-03T16:35:38.028Z,10.40
2018-12-03T16:38:07.221Z,10.40
2018-12-03T16:40:36.415Z,10.40
2018-12-03T16:43:05.768Z,10.40
2018-12-03T16:45:35.045Z,10.40
2018-12-03T16:48:04.319Z,10.50
2018-12-03T16:50:33.542Z,10.50
2018-12-03T16:53:02.804Z,10.50
2018-12-03T16:55:31.993Z,10.50
2018-12-03T16:58:01.182Z,10.50
2018-12-03T17:00:30.493Z,10.60
2018-12-03T17:02:59.667Z,10.60
2018-12-03T17:05:29.575Z,10.60
2018-12-03T17:07:58.842Z,10.60
2018-12-03T17:10:28.136Z,10.60
2018-12-03T17:12:58.546Z,10.60
2018-12-03T17:15:27.871Z,10.60
2018-12-03T17:17:57.046Z,10.60
2018-12-03T17:21:44.226Z,10.60
2018-12-03T17:24:21.228Z,10.60
2018-12-03T17:26:50.419Z,10.60
2018-12-03T17:29:19.768Z,10.70
2018-12-03T17:31:48.948Z,10.70
2018-12-03T17:34:18.152Z,10.70
2018-12-03T17:36:50.342Z,10.70
2018-12-03T17:39:19.554Z,10.70
2018-12-03T17:41:48.803Z,10.70
2018-12-03T17:44:18.141Z,10.80
2018-12-03T17:46:47.531Z,10.80
2018-12-03T17:49:16.763Z,10.80
2018-12-03T17:51:45.958Z,10.80
2018-12-03T17:54:15.183Z,10.80
2018-12-03T17:56:44.380Z,10.80
2018-12-03T17:59:13.587Z,10.70
2018-12-03T18:01:42.762Z,10.70
2018-12-03T18:04:15.748Z,10.70
2018-12-03T18:06:45.833Z,10.70
2018-12-03T18:09:15.020Z,10.60
2018-12-03T18:11:44.211Z,10.60
2018-12-03T18:14:13.397Z,10.60
2018-12-03T18:16:42.554Z,10.60
2018-12-03T18:19:12.143Z,10.60
2018-12-03T18:21:41.310Z,10.60
2018-12-03T18:24:10.617Z,10.60
2018-12-03T18:26:39.798Z,10.60
2018-12-03T18:29:09.012Z,10.50
2018-12-03T18:31:38.299Z,10.50
2018-12-03T18:34:07.471Z,10.50
2018-12-03T18:36:36.695Z,10.50
2018-12-03T18:39:09.032Z,10.50
2018-12-03T18:41:38.234Z,10.50
2018-12-03T18:44:07.489Z,10.50
2018-12-03T18:46:36.732Z,10.40
2018-12-03T18:49:19.111Z,10.40
2018-12-03T18:51:48.292Z,10.40
2018-12-03T18:54:17.574Z,10.40
2018-12-03T18:56:46.901Z,10.40
2018-12-03T18:59:22.840Z,10.30
2018-12-03T19:01:52.010Z,10.30
2018-12-03T19:04:21.179Z,10.30
2018-12-03T19:06:50.550Z,10.30
2018-12-03T19:09:19.758Z,10.30
2018-12-03T19:11:49.003Z,10.30
2018-12-03T19:14:18.192Z,10.30
2018-12-03T19:16:47.543Z,10.30
2018-12-03T19:19:16.763Z,10.30
2018-12-03T19:21:46.115Z,10.20
2018-12-03T19:24:21.763Z,10.20
2018-12-03T19:26:50.951Z,10.20
2018-12-03T19:29:20.136Z,10.20
2018-12-03T19:31:49.327Z,10.20
2018-12-03T19:34:18.510Z,10.20
2018-12-03T19:36:48.716Z,10.10
2018-12-03T19:39:17.995Z,10.10
2018-12-03T19:41:47.177Z,10.10
2018-12-03T19:44:16.379Z,10.10
2018-12-03T19:46:45.718Z,10.10
2018-12-03T19:49:16.002Z,10.10
2018-12-03T19:51:46.002Z,10.10
2018-12-03T19:54:16.268Z,10.10
2018-12-03T19:56:48.876Z,10.10
2018-12-03T19:59:18.315Z,10.10
2018-12-03T20:01:50.983Z,10.10
2018-12-03T20:04:30.528Z,10.10
2018-12-03T20:07:03.164Z,10.10
2018-12-03T20:09:32.563Z,10.10
2018-12-03T20:12:07.220Z,10.00
2018-12-03T20:14:39.200Z,10.10
2018-12-03T20:17:09.454Z,10.10
2018-12-03T20:19:41.744Z,10.10
2018-12-03T20:22:41.500Z,10.10
2018-12-03T20:25:15.492Z,10.10
2018-12-03T20:28:01.015Z,10.10
2018-12-03T20:30:50.360Z,10.00
2018-12-03T20:33:25.952Z,10.00
2018-12-03T20:36:24.771Z,10.00
2018-12-03T20:39:09.992Z,10.00
2018-12-03T20:41:45.046Z,9.90
2018-12-03T20:45:27.546Z,9.90
2018-12-03T20:47:57.563Z,9.90
2018-12-03T20:50:36.000Z,9.90
2018-12-03T20:53:07.773Z,9.90
2018-12-03T20:55:41.761Z,9.90
2018-12-03T20:58:10.951Z,9.90
2018-12-03T21:00:41.718Z,9.90
2018-12-03T21:03:10.883Z,9.90
2018-12-03T21:05:40.072Z,9.90
2018-12-03T21:08:09.266Z,9.90
2018-12-03T21:10:38.463Z,9.90
2018-12-03T21:13:07.635Z,9.90
2018-12-03T21:15:36.830Z,9.90
2018-12-03T21:18:06.214Z,10.00
2018-12-03T21:20:44.847Z,10.00
2018-12-03T21:23:14.224Z,10.00
2018-12-03T21:25:43.405Z,10.00
2018-12-03T21:28:12.956Z,10.00
2018-12-03T21:30:42.243Z,10.00
2018-12-03T21:33:11.418Z,10.00
2018-12-03T21:35:40.691Z,10.00
2018-12-03T21:38:09.911Z,10.00
2018-12-03T21:40:39.356Z,10.00
2018-12-03T21:43:08.714Z,10.00
2018-12-03T21:45:37.895Z,10.10
2018-12-03T21:48:07.089Z,10.10
2018-12-03T21:50:36.267Z,10.10
2018-12-03T21:53:05.530Z,10.10
2018-12-03T21:55:34.695Z,10.10
2018-12-03T21:58:03.978Z,10.00
2018-12-03T22:00:33.334Z,10.00
2018-12-03T22:03:02.520Z,10.00
2018-12-03T22:05:31.699Z,10.10
2018-12-03T22:08:00.972Z,10.10
2018-12-03T22:10:30.183Z,10.00
2018-12-03T22:12:59.384Z,10.00
2018-12-03T22:15:28.572Z,10.00
2018-12-03T22:17:57.798Z,10.00
2018-12-03T22:20:26.959Z,10.00
2018-12-03T22:22:56.207Z,10.00
2018-12-03T22:25:25.379Z,9.90
2018-12-03T22:27:54.567Z,10.00
2018-12-03T22:30:23.872Z,10.00
2018-12-03T22:32:53.087Z,10.00
2018-12-03T22:35:22.259Z,10.10
2018-12-03T22:37:51.484Z,10.00
2018-12-03T22:40:20.686Z,10.00
2018-12-03T22:42:50.055Z,10.00
2018-12-03T22:45:19.282Z,10.00
2018-12-03T22:47:48.730Z,10.00
2018-12-03T22:50:18.092Z,10.00
2018-12-03T22:52:47.278Z,10.00
2018-12-03T22:55:18.221Z,10.00
2018-12-03T22:57:47.452Z,10.00
2018-12-03T23:00:23.074Z,10.00
2018-12-03T23:02:52.263Z,10.00
2018-12-03T23:05:21.590Z,9.90
2018-12-03T23:07:50.825Z,9.90
2018-12-03T23:10:20.058Z,9.90
2018-12-03T23:12:50.136Z,9.90
2018-12-03T23:15:19.383Z,9.90
2018-12-03T23:17:48.571Z,9.90
2018-12-03T23:20:17.760Z,9.90
2018-12-03T23:22:46.934Z,9.90
2018-12-03T23:25:16.098Z,9.90
2018-12-03T23:27:45.324Z,9.90
2018-12-03T23:30:14.578Z,10.00
2018-12-03T23:32:44.488Z,10.00
2018-12-03T23:35:13.655Z,9.90
2018-12-03T23:37:42.832Z,9.90
2018-12-03T23:40:12.023Z,9.90
2018-12-03T23:42:41.294Z,9.90
2018-12-03T23:45:10.723Z,9.90
2018-12-03T23:47:39.929Z,9.90
2018-12-03T23:50:09.204Z,9.90
2018-12-03T23:52:38.391Z,9.90
2018-12-03T23:55:07.824Z,10.00
2018-12-03T23:57:37.095Z,10.00
